CheckWX is a tool to help pilots better visualize weather data.  It is not intended as a substitute for an official pre-flight weather briefing.

18:21:33 UTC

EFKU METAR
Kuopio Airport
Kuopio / Siilinjärvi, Finland
Current

32 mins ago

EFKU 171750Z AUTO 30011KT CAVOK M05/M10 Q1017
Observed
Feb-17 @ 17:50 UTC
Wind
  • 300° at 11 KTS
Visibility
10,000+ meters
Flight Rules
VFR
Cloud Levels
  • Clear skies
Temperature
-5°C / 23°F
Dewpoint
-10°C / 14°F
Humidity
68%
Altimeter
30.03" Hg
Pressure
1016.92 hPa
Previous

1 hour ago

EFKU 171720Z AUTO 30011KT CAVOK M04/M10 Q1016
Observed
Feb-17 @ 17:20 UTC
Wind
  • 300° at 11 KTS
Visibility
10,000+ meters
Flight Rules
VFR
Cloud Levels
  • Clear skies
Temperature
-4°C / 25°F
Dewpoint
-10°C / 14°F
Humidity
63%
Altimeter
30" Hg
Pressure
1015.92 hPa
Previous

2 hours ago

EFKU 171650Z AUTO 30012KT CAVOK M04/M10 Q1015
Observed
Feb-17 @ 16:50 UTC
Wind
  • 300° at 12 KTS
Visibility
10,000+ meters
Flight Rules
VFR
Cloud Levels
  • Clear skies
Temperature
-4°C / 25°F
Dewpoint
-10°C / 14°F
Humidity
63%
Altimeter
29.97" Hg
Pressure
1014.92 hPa